Accueil
METAR-TAF:

METAR-TAF

Aéroports :

Middle Wallop, Angleterre

Army Air Corps Middle Wallop

latitude: 51-09N, longitude: 001-34W, altitude: 91 m

Observation

Le bulletin a été fait il y a 42 minutes, à 23:50 UTC
Vent 6 kt de est/nord-est
Température -1°C
Humidité 80%
Pression 1019 hPa
Visibilité: 7000 m

METAR: EGVP 232350Z AUTO 06006KT 7000 // NCD M01/M04 Q1019

Heure: 00:32 (00:32 UTC)

Prévision

Le bulletin a été fait il y a 11 heures et 17 minutes, à 13:15 UTC
Prévision valable du 23 à 15 UTC au 23 à 18 UTC
Vent 12 kt de est
Visibilité 10 km ou plus
Quelques nuages à une hauteur de 4000 ft

TAF: EGVP 231315Z 2315/2318 09012KT 9999 FEW040

Observations et prévisions météorologiques de plus de 4000 aéroports (messages METAR et TAF).

Les stations disponibles sont représentées par des disques jaunes et rouges sur la carte.

Passer la souris dessus pour voir le nom de la station.

Cliquer dessus pour voir les observations et prévisions météorologiques.

Pour changer de carte: cliquez sur les boutons verts avec une croix noire pour zoomer, sur le bouton vert avec un tiret pour effectuer un zoom arrière, ou sur les flèches vertes pour les cartes adjacentes.


METAR-TAF: